Flight Track Log - Related Links

Times and Time Zones

All times are in EST time to prevent confusion due to time zone crossing. See the N884WT flight status page for this flight to view local times or setup timezone preferences in your user account.

Time Position Orientation Groundspeed Altitude Reporting Facility
EST Latitude Longitude Course Direction KTS MPH feet Rate Location/Type
Fri 01:28:04 AM 37.3833 -121.9500 345° North 172 198 2,300  Level Northern Cal TRACON
Fri 01:29:04 AM 37.4333 -121.9667 345° North 201 231 4,300 1,750 Climbing Northern Cal TRACON
Fri 01:30:04 AM 37.4000 -121.8833 117° Southeast 283 326 5,800 2,516 Climbing Northern Cal TRACON
Fri 01:30:37 AM 37.3725 -121.8578 144° Southeast 276 318 8,200 3,447 Climbing Oakland Center
Fri 01:31:38 AM 37.3122 -121.7900 138° Southeast 294 338 11,200 2,607 Climbing Oakland Center
Fri 01:32:39 AM 37.2347 -121.7036 138° Southeast 365 420 13,500 2,656 Climbing Oakland Center
Fri 01:33:40 AM 37.1542 -121.6139 138° Southeast 385 443 16,600 2,975 Climbing Oakland Center
Fri 01:34:40 AM 37.0644 -121.5164 139° Southeast 407 468 19,500 2,678 Climbing Oakland Center
Fri 01:35:41 AM 36.9772 -121.4164 137° Southeast 422 486 22,000 2,361 Climbing Oakland Center
Fri 01:36:42 AM 36.8856 -121.3161 139° Southeast 435 501 24,300 2,410 Climbing Oakland Center
Fri 01:37:43 AM 36.7900 -121.2153 140° Southeast 450 518 26,900 2,281 Climbing Oakland Center
Fri 01:38:43 AM 36.6922 -121.1097 139° Southeast 462 532 28,900 1,041 Climbing Oakland Center
Fri 01:39:44 AM 36.5931 -121.0008 139° Southeast 473 544 29,000 49 Climbing Oakland Center
Fri 01:40:45 AM 36.4950 -120.8919 138° Southeast 474 545 29,000 984 Level Oakland Center
Fri 01:41:46 AM 36.3747 -120.7583 138° Southeast 479 551 31,000 2,430 Climbing Oakland Center
Fri 01:42:46 AM 36.2719 -120.6483 139° Southeast 486 559 33,900 2,876 Climbing Oakland Center
Fri 01:43:47 AM 36.1714 -120.5400 139° Southeast 483 556 36,800 2,311 Climbing Oakland Center
Fri 01:44:48 AM 36.0719 -120.4322 139° Southeast 477 549 38,600 1,785 Climbing Oakland Center
Fri 01:45:48 AM 35.9719 -120.3253 139° Southeast 475 547 40,400 1,190 Climbing Oakland Center
Fri 01:46:49 AM 35.8719 -120.2186 139° Southeast 473 544 41,000 295 Climbing Oakland Center
Fri 01:47:50 AM 35.7731 -120.1125 139° Southeast 470 541 41,000  Level Oakland Center
Fri 01:48:50 AM 35.6722 -120.0067 140° Southeast 472 543 41,000  Level Oakland Center
Fri 01:49:46 AM 35.5867 -119.9256 142° Southeast 474 545 41,000  Level Los Angeles Center
Fri 01:50:46 AM 35.4794 -119.8325 145° Southeast 470 541 41,000  Level Los Angeles Center
Fri 01:51:47 AM 35.3719 -119.7400 145° Southeast 469 540 41,000 -98 Level Los Angeles Center
Fri 01:52:48 AM 35.2525 -119.6361 145° Southeast 469 540 40,800 -1,235 Descending Los Angeles Center
Fri 01:54:37 AM 35.0692 -119.4817 145° Southeast 472 543 37,500 -1,871 Descending Los Angeles Center
Fri 01:55:38 AM 34.9622 -119.3892 145° Southeast 471 542 35,500 -2,016 Descending Los Angeles Center
Fri 01:56:39 AM 34.8331 -119.2808 145° Southeast 470 541 33,400 -1,884 Descending Los Angeles Center
Fri 01:57:39 AM 34.7228 -119.1883 145° Southeast 478 550 31,700 -1,636 Descending Los Angeles Center
Fri 01:58:40 AM 34.6194 -119.1036 146° Southeast 481 554 30,100 -1,672 Descending Los Angeles Center
Fri 01:59:41 AM 34.5086 -119.0089 145° Southeast 487 560 28,300 -1,736 Descending Los Angeles Center
Fri 02:00:41 AM 34.3969 -118.9167 146° Southeast 486 559 26,600 -1,686 Descending Los Angeles Center
Fri 02:01:42 AM 34.2936 -118.8175 142° Southeast 477 549 24,900 -1,279 Descending Los Angeles Center
Fri 02:02:43 AM 34.1964 -118.7125 138° Southeast 470 541 24,000 -446 Descending Los Angeles Center
Fri 02:03:43 AM 34.0989 -118.6092 139° Southeast 468 539 24,000 -50 Level Los Angeles Center
Fri 02:04:44 AM 33.9869 -118.4942 140° Southeast 471 542 23,900 -744 Descending Los Angeles Center
Fri 02:05:44 AM 33.8706 -118.4589 166° South 442 509 22,500 -1,488 Descending Los Angeles Center
Fri 02:06:45 AM 33.7481 -118.4975 195° South 426 490 20,900 -1,574 Descending Los Angeles Center
Fri 02:07:46 AM 33.6408 -118.5333 196° South 416 479 19,300 -1,537 Descending Los Angeles Center
Fri 02:08:46 AM 33.5411 -118.5008 165° South 400 460 17,800 -1,438 Descending Los Angeles Center
Fri 02:09:47 AM 33.5011 -118.3772 111° Southeast 404 465 16,400 -1,426 Descending Los Angeles Center
Fri 02:10:48 AM 33.4681 -118.2533 108° East 400 460 14,900 -1,289 Descending Los Angeles Center
Fri 02:11:48 AM 33.4400 -118.1450 107° East 368 423 13,800 -1,190 Descending Los Angeles Center
Fri 02:12:49 AM 33.4103 -118.0367 108° East 351 404 12,500 -1,279 Descending Los Angeles Center
Fri 02:13:50 AM 33.3831 -117.9331 107° East 340 391 11,200 -1,190 Descending Los Angeles Center
Fri 02:14:50 AM 33.3569 -117.8392 108° East 313 360 10,100 -1,091 Descending Los Angeles Center
Fri 02:15:51 AM 33.3314 -117.7467 108° East 300 345 9,000 -1,230 Descending Los Angeles Center
Fri 02:16:52 AM 33.3022 -117.6383 108° East 289 333 7,600 -1,221 Descending Los Angeles Center
Fri 02:17:44 AM 33.2833 -117.5667 107° East 285 328 6,700 -1,071 Descending Southern California TRACON
Fri 02:18:44 AM 33.2500 -117.4667 112° Southeast 281 323 5,600 -850 Descending Southern California TRACON
Fri 02:19:44 AM 33.2333 -117.3833 103° East 274 315 5,000 -316 Descending Southern California TRACON
Fri 02:20:38 AM 33.2333 -117.3000 90° East 278 320 5,000  Level Southern California TRACON
Fri 02:21:44 AM 33.2333 -117.2000 90° East 273 314 5,000  Level Southern California TRACON
Fri 02:22:44 AM 33.2333 -117.1167 90° East 225 259 5,000 50 Level Southern California TRACON
Fri 02:23:44 AM 33.2333 -117.0500 90° East 224 258 5,100 -271 Climbing Southern California TRACON
Fri 02:24:57 AM 33.1667 -117.0000 148° Southeast 207 238 4,400 -425 Descending Southern California TRACON
Fri 02:25:51 AM 33.1667 -117.0500 270° West 174 200 4,200 -600 Descending Southern California TRACON
Fri 02:26:57 AM 33.1500 -117.1167 253° West 171 197 3,200 -952 Descending Southern California TRACON
Fri 02:27:57 AM 33.1500 -117.1667 270° West 155 178 2,200 -842 Descending Southern California TRACON
Fri 02:28:51 AM 33.1333 -117.2000 239° Southwest 142 163 1,600 -737 Descending Southern California TRACON
Fri 02:29:51 AM 33.1333 -117.2500 270° West 140 161 800 -632 Descending Southern California TRACON
Fri 02:30:45 AM 33.1333 -117.2833 270° West 136 157 400 -444 Descending Southern California TRACON

Login

Don't have an account? Register now (free) for customized features, flight alerts, and more!